Time;durP1;ratioP1;P1;durP2;ratioP2;P2;SDS_P1;SDS_P2;PMS_P1;PMS_P2;Temp;Humidity;BMP_temperature;BMP_pressure;BME280_temperature;BME280_humidity;BME280_pressure;Samples;Min_cycle;Max_cycle;Signal;HPM_P1;HPM_P2
2022/01/02 00:00:34;;;;;;;0.85;0.85;;;;;;;1.59;76.30;99728.54;1671556;84;21051;-76
2022/01/02 00:03:04;;;;;;;0.90;0.90;;;;;;;1.57;75.61;99746.48;1695942;83;21596;-78
2022/01/02 00:05:34;;;;;;;0.90;0.90;;;;;;;1.57;75.99;99731.91;1720746;83;21004;-83
2022/01/02 00:08:06;;;;;;;0.90;0.90;;;;;;;1.57;76.26;99737.70;1720708;83;21074;-80
2022/01/02 00:10:45;;;;;;;1.27;1.17;;;;;;;1.57;76.59;99762.89;1721329;83;21011;-81
2022/01/02 00:13:19;;;;;;;1.02;0.95;;;;;;;1.53;76.86;99754.50;1695020;83;21128;-83
2022/01/02 00:15:46;;;;;;;1.00;1.00;;;;;;;1.55;77.46;99748.99;1725387;82;21206;-80
2022/01/02 00:18:13;;;;;;;0.90;0.90;;;;;;;1.57;77.92;99765.53;1698594;83;21028;-77
2022/01/02 00:20:47;;;;;;;1.05;1.05;;;;;;;1.57;78.39;99754.44;1723943;83;20998;-78
2022/01/02 00:23:21;;;;;;;0.93;0.93;;;;;;;1.57;78.89;99754.94;1773202;80;21028;-79
2022/01/02 00:25:47;;;;;;;0.82;0.82;;;;;;;1.53;79.40;99798.23;1723153;81;23227;-79
2022/01/02 00:28:19;;;;;;;1.10;1.10;;;;;;;1.52;80.15;99780.69;1716800;83;20913;-78
2022/01/02 00:30:47;;;;;;;1.00;1.00;;;;;;;1.51;80.78;99792.79;1721335;83;20987;-79
2022/01/02 00:33:15;;;;;;;1.20;1.20;;;;;;;1.51;81.44;99778.21;1701972;83;21547;-75
2022/01/02 00:35:41;;;;;;;1.25;1.15;;;;;;;1.49;81.93;99789.49;1714338;83;21190;-77
2022/01/02 00:38:20;;;;;;;2.05;1.70;;;;;;;1.48;81.94;99779.42;1721419;83;21564;-80
2022/01/02 00:40:50;;;;;;;0.78;0.78;;;;;;;1.48;82.02;99799.80;1721060;83;21120;-78
2022/01/02 00:43:22;;;;;;;0.93;0.93;;;;;;;1.44;81.37;99798.55;1724359;82;21031;-79
2022/01/02 00:45:51;;;;;;;1.07;1.02;;;;;;;1.41;80.71;99799.72;1724595;82;21090;-83
2022/01/02 00:48:24;;;;;;;1.00;1.00;;;;;;;1.40;79.89;99830.38;1719427;82;21071;-82
2022/01/02 00:50:54;;;;;;;0.93;0.93;;;;;;;1.37;77.10;99820.16;1724779;82;21118;-79
2022/01/02 00:53:24;;;;;;;0.90;0.90;;;;;;;1.35;77.20;99826.14;1725494;82;21027;-86
2022/01/02 00:55:56;;;;;;;3.15;0.85;;;;;;;1.35;75.84;99844.68;1716468;83;20964;-87
2022/01/02 00:58:25;;;;;;;0.90;0.90;;;;;;;1.30;74.53;99821.40;1716916;83;21042;-84
2022/01/02 01:00:51;;;;;;;0.80;0.80;;;;;;;1.29;73.80;99823.25;1721038;83;21025;-85
2022/01/02 01:03:25;;;;;;;0.80;0.80;;;;;;;1.28;73.07;99845.45;1701576;83;21030;-82
2022/01/02 01:05:53;;;;;;;0.78;0.78;;;;;;;1.27;73.26;99831.05;1715944;83;21109;-75
2022/01/02 01:08:21;;;;;;;1.07;0.98;;;;;;;1.25;73.51;99832.56;1702413;83;21062;-83
2022/01/02 01:10:48;;;;;;;1.10;1.10;;;;;;;1.24;73.60;99826.97;1718803;83;21006;-85
2022/01/02 01:13:15;;;;;;;0.90;0.90;;;;;;;1.22;74.15;99843.53;1722353;83;21037;-85
2022/01/02 01:15:42;;;;;;;0.93;0.93;;;;;;;1.19;74.36;99828.03;1724691;83;21076;-76
2022/01/02 01:18:08;;;;;;;1.05;1.05;;;;;;;1.18;74.70;99833.00;1720092;83;21012;-75
2022/01/02 01:20:41;;;;;;;1.10;1.10;;;;;;;1.15;74.83;99837.33;1717871;83;21562;-79
2022/01/02 01:23:11;;;;;;;0.90;0.90;;;;;;;1.13;75.15;99836.70;1720858;83;20984;-78
2022/01/02 01:25:44;;;;;;;0.98;0.98;;;;;;;1.15;75.43;99827.27;1724129;83;21044;-79
2022/01/02 01:28:08;;;;;;;1.00;1.00;;;;;;;1.12;74.92;99840.36;1694529;83;21580;-81
2022/01/02 01:30:36;;;;;;;2.25;1.00;;;;;;;1.11;74.92;99843.18;1724778;83;20976;-78
2022/01/02 01:33:03;;;;;;;1.05;0.95;;;;;;;1.10;74.91;99854.80;1720411;83;21528;-79
2022/01/02 01:35:34;;;;;;;0.90;0.90;;;;;;;1.09;75.36;99876.48;1710309;83;21064;-81
2022/01/02 01:38:05;;;;;;;;;;;;;;;1.07;75.97;99859.95;1696878;83;20975;-79
2022/01/02 01:40:40;;;;;;;1.00;1.00;;;;;;;1.07;76.25;99878.98;1700157;83;21498;-78
2022/01/02 01:43:09;;;;;;;0.90;0.90;;;;;;;1.01;75.75;99881.07;1723586;83;20995;-83
2022/01/02 01:45:39;;;;;;;0.83;0.83;;;;;;;0.96;72.88;99888.21;1718981;83;20958;-83
2022/01/02 01:48:07;;;;;;;1.02;1.02;;;;;;;0.95;72.49;99879.97;1718911;82;21020;-79
2022/01/02 01:50:40;;;;;;;0.90;0.90;;;;;;;0.91;72.68;99930.33;1724686;82;21084;-78
2022/01/02 01:53:08;;;;;;;1.00;1.00;;;;;;;0.89;72.50;99892.61;1700278;83;21162;-73
2022/01/02 01:55:37;;;;;;;0.90;0.90;;;;;;;0.86;72.41;99899.60;1720251;83;20992;-72
2022/01/02 01:58:04;;;;;;;0.90;0.90;;;;;;;0.85;72.57;99888.19;1718711;83;21011;-78
2022/01/02 02:00:33;;;;;;;0.90;0.90;;;;;;;0.84;72.55;99906.39;1720708;82;21039;-79
2022/01/02 02:02:59;;;;;;;1.03;1.00;;;;;;;0.84;72.35;99895.80;1718661;83;21065;-78
2022/01/02 02:05:27;;;;;;;1.10;1.00;;;;;;;0.85;72.24;99906.72;1719191;83;21057;-76
2022/01/02 02:07:54;;;;;;;1.10;1.10;;;;;;;0.83;70.56;99888.86;1714258;83;21056;-77
2022/01/02 02:10:27;;;;;;;1.10;1.10;;;;;;;0.82;70.66;99907.06;1721057;83;21622;-76
2022/01/02 02:12:55;;;;;;;1.70;1.60;;;;;;;0.74;69.09;99883.34;1715468;83;21506;-83
2022/01/02 02:15:23;;;;;;;1.10;1.00;;;;;;;0.70;69.04;99901.91;1728156;82;21020;-83
2022/01/02 02:17:52;;;;;;;0.80;0.80;;;;;;;0.67;68.29;99892.99;1716911;83;21195;-85
2022/01/02 02:20:25;;;;;;;0.80;0.80;;;;;;;0.64;67.67;99903.95;1728034;83;21026;-87
2022/01/02 02:22:55;;;;;;;1.10;1.10;;;;;;;0.65;66.78;99913.54;1729630;83;21000;-81
2022/01/02 02:25:25;;;;;;;1.27;1.00;;;;;;;0.63;66.33;99913.38;1720477;82;21086;-80
2022/01/02 02:28:00;;;;;;;2.30;1.10;;;;;;;0.65;66.76;99887.08;1696342;83;21059;-80
2022/01/02 02:30:28;;;;;;;0.90;0.90;;;;;;;0.63;66.38;99914.70;1703506;83;21110;-90
2022/01/02 02:32:55;;;;;;;1.20;1.10;;;;;;;0.59;66.53;99931.95;1714282;83;21012;-88
2022/01/02 02:35:23;;;;;;;1.00;1.00;;;;;;;0.60;67.40;99942.86;1727041;82;21525;-88
2022/01/02 02:37:50;;;;;;;1.63;1.40;;;;;;;0.53;67.08;99944.07;1726908;82;21068;-93
2022/01/02 02:40:20;;;;;;;1.10;1.10;;;;;;;0.51;67.75;99930.71;1704020;82;21058;-91
2022/01/02 02:42:55;;;;;;;1.40;1.30;;;;;;;0.46;67.89;99929.10;1688059;83;21106;-89
2022/01/02 02:54:20;;;;;;;1.10;1.10;;;;;;;0.34;68.65;99940.59;1727631;83;21553;-76
2022/01/02 02:56:58;;;;;;;1.00;1.00;;;;;;;0.30;68.07;99948.07;1721032;83;21617;-77
2022/01/02 02:59:30;;;;;;;1.47;1.20;;;;;;;0.27;67.66;99953.73;1726658;83;20980;-73
2022/01/02 03:01:57;;;;;;;1.10;1.10;;;;;;;0.19;67.49;99952.97;1720713;83;21026;-75
2022/01/02 03:04:25;;;;;;;1.03;1.00;;;;;;;0.13;67.56;99958.95;1726356;83;21517;-75
2022/01/02 03:06:51;;;;;;;4.10;1.30;;;;;;;0.08;67.20;99976.67;1727046;82;20989;-76
2022/01/02 03:09:36;;;;;;;1.00;1.00;;;;;;;0.04;65.83;99956.88;1726745;83;21528;-76
2022/01/02 03:11:47;;;;;;;1.10;1.10;;;;;;;0.04;66.09;99978.52;1724617;83;20959;-75
2022/01/02 03:14:13;;;;;;;1.10;1.10;;;;;;;0.02;66.02;99972.08;1720552;83;20992;-79
2022/01/02 03:16:43;;;;;;;1.20;1.20;;;;;;;-0.02;66.29;99995.41;1717548;83;21045;-81
2022/01/02 03:19:13;;;;;;;2.60;1.40;;;;;;;-0.06;66.33;99987.50;1685014;84;21018;-81
2022/01/02 03:21:39;;;;;;;0.90;0.90;;;;;;;-0.06;66.73;99993.28;1701385;83;21560;-78
2022/01/02 03:24:06;;;;;;;1.03;1.03;;;;;;;-0.06;66.50;99995.93;1684167;84;21524;-80
2022/01/02 03:26:33;;;;;;;1.53;1.43;;;;;;;-0.06;66.94;99991.47;1712371;83;20985;-79
2022/01/02 03:28:59;;;;;;;1.00;1.00;;;;;;;-0.05;66.92;99986.48;1704467;83;21505;-83
2022/01/02 03:31:26;;;;;;;1.00;1.00;;;;;;;-0.04;66.81;100019.03;1720452;83;21044;-72
2022/01/02 03:33:53;;;;;;;2.10;1.50;;;;;;;-0.14;66.38;100000.74;1723590;83;21047;-76
2022/01/02 03:36:20;;;;;;;1.20;1.17;;;;;;;-0.13;66.77;100010.33;1719509;83;21044;-74
2022/01/02 03:38:47;;;;;;;1.43;1.33;;;;;;;-0.15;67.18;100007.55;1723840;83;21032;-74
2022/01/02 03:41:14;;;;;;;1.20;1.10;;;;;;;-0.15;67.41;100012.83;1719718;83;21066;-75
2022/01/02 03:43:40;;;;;;;1.00;1.00;;;;;;;-0.19;67.22;100040.61;1724314;82;21039;-73
2022/01/02 03:46:07;;;;;;;1.13;1.10;;;;;;;-0.17;67.66;100034.64;1698970;83;21109;-78
2022/01/02 03:48:35;;;;;;;1.10;1.10;;;;;;;-0.19;67.62;100029.52;1720468;83;21003;-81
2022/01/02 03:51:02;;;;;;;1.10;1.10;;;;;;;-0.24;67.69;100063.56;1713713;83;21053;-78
2022/01/02 03:53:31;;;;;;;1.20;1.20;;;;;;;-0.25;67.92;100047.89;1724445;82;21564;-75
2022/01/02 03:55:57;;;;;;;1.00;1.00;;;;;;;-0.29;67.91;100043.95;1716686;83;21521;-77
2022/01/02 03:58:25;;;;;;;1.30;1.30;;;;;;;-0.30;68.08;100059.48;1709453;83;21068;-78
2022/01/02 04:00:51;;;;;;;1.00;1.00;;;;;;;-0.31;68.15;100075.00;1681889;85;21041;-78
2022/01/02 04:03:19;;;;;;;1.47;1.37;;;;;;;-0.34;68.20;100060.81;1715735;83;20952;-76
2022/01/02 04:05:46;;;;;;;1.57;1.30;;;;;;;-0.39;68.02;100078.50;1693960;83;21055;-76
2022/01/02 04:08:14;;;;;;;1.23;1.13;;;;;;;-0.45;67.88;100095.03;1720419;83;21044;-76
2022/01/02 04:10:40;;;;;;;1.27;1.27;;;;;;;-0.51;68.18;100100.97;1697922;83;21596;-77
2022/01/02 04:13:06;;;;;;;1.60;1.50;;;;;;;-0.52;68.37;100116.48;1698124;83;21044;-78
2022/01/02 04:15:33;;;;;;;1.50;1.40;;;;;;;-0.56;68.00;100105.45;1718757;83;21040;-75
2022/01/02 04:18:02;;;;;;;1.73;1.40;;;;;;;-0.58;68.20;100101.34;1718873;83;21122;-74
2022/01/02 04:20:28;;;;;;;1.47;1.37;;;;;;;-0.58;68.50;100107.45;1718791;83;20989;-74
2022/01/02 04:22:57;;;;;;;1.20;1.20;;;;;;;-0.60;68.29;100107.27;1718932;83;21208;-75
2022/01/02 04:25:25;;;;;;;1.60;1.50;;;;;;;-0.69;68.32;100113.56;1718926;83;20926;-72
2022/01/02 04:27:51;;;;;;;1.30;1.20;;;;;;;-0.76;68.78;100113.88;1698498;83;21061;-75
2022/01/02 04:30:18;;;;;;;1.00;1.00;;;;;;;-0.76;68.73;100135.84;1718804;83;21100;-75
2022/01/02 04:32:44;;;;;;;1.27;1.27;;;;;;;-0.79;69.09;100128.26;1719084;83;21510;-74
2022/01/02 04:35:11;;;;;;;2.13;1.10;;;;;;;-0.79;68.93;100111.58;1698082;83;21076;-76
2022/01/02 04:37:38;;;;;;;3.27;1.40;;;;;;;-0.82;69.01;100123.32;1719070;83;21238;-81
2022/01/02 04:40:05;;;;;;;1.43;1.33;;;;;;;-0.86;68.99;100133.86;1684360;84;21052;-85
2022/01/02 04:42:34;;;;;;;1.27;1.27;;;;;;;-0.92;68.93;100135.37;1665758;85;21523;-86
2022/01/02 04:45:01;;;;;;;1.20;1.20;;;;;;;-1.03;68.77;100170.00;1693152;83;21598;-76
2022/01/02 04:47:28;;;;;;;1.80;1.57;;;;;;;-1.07;68.66;100126.45;1724985;82;21502;-79
2022/01/02 04:49:57;;;;;;;1.37;1.37;;;;;;;-1.13;68.35;100145.58;1720538;83;21096;-81
2022/01/02 04:52:25;;;;;;;1.30;1.20;;;;;;;-1.18;68.02;100149.69;1694177;84;21059;-78
2022/01/02 04:54:51;;;;;;;1.80;1.70;;;;;;;-1.21;68.19;100162.72;1720297;83;21510;-76
2022/01/02 04:57:19;;;;;;;1.43;1.33;;;;;;;-1.20;67.92;100159.59;1720335;83;21079;-75
2022/01/02 04:59:45;;;;;;;1.60;1.50;;;;;;;-1.20;68.02;100228.20;1724374;82;22107;-74
2022/01/02 05:02:12;;;;;;;1.47;1.37;;;;;;;-1.21;67.88;100164.53;1720130;83;21567;-74
2022/01/02 05:04:41;;;;;;;1.67;1.57;;;;;;;-1.22;67.81;100170.30;1699621;83;21053;-80
2022/01/02 05:07:08;;;;;;;1.43;1.33;;;;;;;-1.26;67.62;100174.26;1724861;83;21533;-79
2022/01/02 05:09:34;;;;;;;3.17;1.70;;;;;;;-1.25;67.80;100179.05;1720590;83;21596;-79
2022/01/02 05:12:03;;;;;;;1.13;1.13;;;;;;;-1.24;67.79;100179.35;1694235;84;21163;-82
2022/01/02 05:14:30;;;;;;;1.40;1.30;;;;;;;-1.26;67.82;100178.22;1720188;83;21007;-80
2022/01/02 05:16:58;;;;;;;1.60;1.50;;;;;;;-1.35;68.00;100191.89;1718844;83;21041;-82
2022/01/02 05:19:25;;;;;;;3.80;1.60;;;;;;;-1.35;68.27;100170.78;1718622;83;21048;-81
2022/01/02 05:21:51;;;;;;;1.50;1.40;;;;;;;-1.40;68.64;100178.35;1718929;83;21009;-81
2022/01/02 05:24:18;;;;;;;1.77;1.67;;;;;;;-1.41;68.80;100181.97;1717927;83;21520;-82
2022/01/02 05:26:44;;;;;;;1.80;1.70;;;;;;;-1.39;68.95;100179.19;1719124;83;20983;-78
2022/01/02 05:29:11;;;;;;;1.50;1.40;;;;;;;-1.41;69.07;100175.38;1719401;83;21090;-82
2022/01/02 05:31:38;;;;;;;1.70;1.60;;;;;;;-1.41;69.21;100178.02;1719951;83;21010;-80
2022/01/02 05:34:05;;;;;;;1.87;1.77;;;;;;;-1.42;69.46;100186.08;1720527;83;21270;-80
2022/01/02 05:36:31;;;;;;;1.53;1.43;;;;;;;-1.43;69.62;100192.33;1726111;83;21206;-80
2022/01/02 05:38:58;;;;;;;1.40;1.30;;;;;;;-1.54;69.57;100201.39;1721655;83;21008;-88
2022/01/02 05:41:27;;;;;;;2.10;1.67;;;;;;;-1.54;69.95;100194.80;1724975;82;20980;-89
2022/01/02 05:43:56;;;;;;;1.20;1.20;;;;;;;-1.51;70.02;100189.68;1720739;82;21510;-87
2022/01/02 05:46:22;;;;;;;1.63;1.53;;;;;;;-1.50;69.75;100200.57;1725153;83;21030;-91
2022/01/02 05:48:50;;;;;;;1.50;1.40;;;;;;;-1.53;69.58;100183.23;1721107;83;21103;-85
2022/01/02 05:51:17;;;;;;;3.00;2.80;;;;;;;-1.63;69.52;100187.02;1724474;83;21053;-81
2022/01/02 05:53:44;;;;;;;1.20;1.20;;;;;;;-1.66;69.72;100200.50;1714255;83;21622;-81
2022/01/02 05:56:11;;;;;;;1.93;1.70;;;;;;;-1.72;69.83;100193.21;1719947;83;21611;-82
2022/01/02 05:58:38;;;;;;;2.23;1.50;;;;;;;-1.79;69.99;100216.77;1683010;84;21055;-82
2022/01/02 06:01:04;;;;;;;1.47;1.37;;;;;;;-1.83;69.85;100207.53;1720323;83;21128;-78
2022/01/02 06:03:32;;;;;;;3.07;1.60;;;;;;;-1.84;69.69;100221.20;1667042;84;21046;-80
2022/01/02 06:05:59;;;;;;;1.70;1.60;;;;;;;-1.85;69.74;100216.07;1682023;85;21064;-80
2022/01/02 06:08:25;;;;;;;2.20;1.70;;;;;;;-1.86;69.83;100215.73;1713817;83;21089;-77
2022/01/02 06:10:53;;;;;;;1.60;1.50;;;;;;;-1.89;69.70;100224.79;1724269;83;21098;-79
2022/01/02 06:13:21;;;;;;;1.87;1.77;;;;;;;-1.88;69.67;100229.09;1671890;84;21087;-79
2022/01/02 06:15:50;;;;;;;1.40;1.30;;;;;;;-1.89;69.57;100226.59;1690119;84;20983;-78
2022/01/02 06:18:16;;;;;;;1.50;1.40;;;;;;;-1.92;68.85;100213.23;1713196;83;21055;-80
2022/01/02 06:20:43;;;;;;;1.70;1.60;;;;;;;-1.96;68.83;100251.42;1718706;83;21077;-80
2022/01/02 06:23:09;;;;;;;1.50;1.40;;;;;;;-1.97;68.82;100236.62;1673219;84;21533;-78
2022/01/02 06:25:37;;;;;;;1.60;1.50;;;;;;;-1.99;68.78;100236.42;1698879;83;21608;-82
2022/01/02 06:28:04;;;;;;;1.90;1.80;;;;;;;-2.01;68.76;100231.30;1722055;83;22279;-80
2022/01/02 06:30:32;;;;;;;6.27;1.37;;;;;;;-2.02;68.74;100230.16;1720483;83;21593;-79
2022/01/02 06:33:03;;;;;;;2.23;1.40;;;;;;;-2.03;68.50;100237.72;1724514;83;21043;-82
2022/01/02 06:35:32;;;;;;;1.60;1.50;;;;;;;-2.06;68.42;100237.52;1699832;83;21013;-79
2022/01/02 06:38:12;;;;;;;3.17;1.90;;;;;;;-2.03;68.66;100241.19;1691620;84;21064;-79
2022/01/02 06:40:40;;;;;;;1.60;1.50;;;;;;;-2.01;68.57;100237.89;1689674;84;21512;-78
2022/01/02 06:43:06;;;;;;;2.37;2.03;;;;;;;-2.08;67.56;100238.67;1697390;83;21054;-81
2022/01/02 06:45:34;;;;;;;1.60;1.50;;;;;;;-2.11;67.85;100243.75;1713903;83;21453;-81
2022/01/02 06:48:02;;;;;;;1.40;1.40;;;;;;;-2.10;67.85;100245.41;1720561;83;21538;-79
2022/01/02 06:50:30;;;;;;;1.93;1.70;;;;;;;-2.13;67.00;100243.58;1720261;83;21135;-81
2022/01/02 06:52:57;;;;;;;2.73;2.03;;;;;;;-2.18;66.52;100257.70;1688563;84;20998;-79
2022/01/02 06:55:24;;;;;;;1.40;1.30;;;;;;;-2.20;66.65;100273.66;1682211;85;21134;-78
2022/01/02 06:57:52;;;;;;;4.70;1.57;;;;;;;-2.28;65.89;100263.90;1663845;84;21023;-79
2022/01/02 07:00:20;;;;;;;1.80;1.67;;;;;;;-2.29;65.87;100273.27;1693942;83;21004;-77
2022/01/02 07:02:47;;;;;;;2.13;1.97;;;;;;;-2.30;66.13;100268.97;1720627;83;21167;-80
2022/01/02 07:05:13;;;;;;;1.50;1.40;;;;;;;-2.29;65.74;100274.58;1693902;83;21088;-79
2022/01/02 07:07:42;;;;;;;1.70;1.60;;;;;;;-2.35;65.77;100252.83;1720081;83;21012;-78
2022/01/02 07:10:10;;;;;;;2.37;1.80;;;;;;;-2.35;65.84;100268.63;1693805;84;21549;-78
2022/01/02 07:12:39;;;;;;;1.80;1.70;;;;;;;-2.34;65.98;100278.16;1720332;83;21102;-78
2022/01/02 07:15:08;;;;;;;1.80;1.70;;;;;;;-2.34;65.46;100264.99;1720728;83;21182;-78
2022/01/02 07:17:34;;;;;;;1.50;1.40;;;;;;;-2.33;65.84;100284.61;1667809;83;21670;-84
2022/01/02 07:20:02;;;;;;;1.93;1.80;;;;;;;-2.33;65.96;100268.80;1722077;83;20971;-86
2022/01/02 07:22:29;;;;;;;1.90;1.80;;;;;;;-2.30;66.37;100271.12;1701176;83;21067;-83
2022/01/02 07:24:55;;;;;;;2.50;2.03;;;;;;;-2.33;66.02;100260.90;1742828;82;21044;-87
2022/01/02 07:27:21;;;;;;;1.53;1.43;;;;;;;-2.28;66.17;100264.39;1722470;83;21216;-82
2022/01/02 07:29:49;;;;;;;1.70;1.50;;;;;;;-2.28;65.59;100265.22;1721672;83;21571;-81
2022/01/02 07:32:15;;;;;;;2.90;1.70;;;;;;;-2.26;65.70;100271.17;1721261;83;21502;-82
2022/01/02 07:34:42;;;;;;;3.30;2.27;;;;;;;-2.25;65.88;100274.13;1697972;83;21033;-81
2022/01/02 07:37:10;;;;;;;3.03;2.60;;;;;;;-2.20;65.58;100282.39;1726036;82;21062;-81
2022/01/02 07:39:36;;;;;;;2.13;2.03;;;;;;;-2.21;65.19;100279.94;1684279;84;21206;-80
2022/01/02 07:42:03;;;;;;;1.93;1.83;;;;;;;-2.21;65.23;100291.79;1720520;83;21018;-82
2022/01/02 07:44:32;;;;;;;1.90;1.77;;;;;;;-2.17;64.98;100287.86;1721922;82;21003;-80
2022/01/02 07:46:59;;;;;;;2.83;1.80;;;;;;;-2.12;64.98;100289.55;1721140;83;21058;-80
2022/01/02 07:49:27;;;;;;;1.60;1.50;;;;;;;-2.11;64.94;100289.06;1721143;83;21105;-82
2022/01/02 07:51:53;;;;;;;1.60;1.50;;;;;;;-2.12;64.30;100290.03;1725953;83;21204;-82
2022/01/02 07:54:19;;;;;;;2.50;1.90;;;;;;;-2.22;63.84;100294.91;1720431;83;20972;-82
2022/01/02 07:56:46;;;;;;;2.03;1.83;;;;;;;-2.20;64.33;100290.30;1720283;83;21069;-80
2022/01/02 07:59:12;;;;;;;1.40;1.30;;;;;;;-2.13;64.48;100283.11;1721059;83;21106;-79
2022/01/02 08:01:38;;;;;;;1.50;1.40;;;;;;;-2.14;63.47;100299.89;1745868;82;21072;-82
2022/01/02 08:04:05;;;;;;;1.70;1.60;;;;;;;-2.12;63.52;100286.08;1714061;83;23327;-81
2022/01/02 08:06:31;;;;;;;2.20;2.00;;;;;;;-2.10;63.50;100296.79;1720436;83;21555;-81
2022/01/02 08:08:58;;;;;;;3.33;2.67;;;;;;;-2.09;63.13;100282.64;1695151;83;21017;-82
2022/01/02 08:11:25;;;;;;;2.87;2.50;;;;;;;-2.04;63.32;100286.96;1694672;84;21409;-82
2022/01/02 08:13:53;;;;;;;2.63;2.10;;;;;;;-2.00;62.66;100300.65;1689902;84;21496;-76
2022/01/02 08:16:19;;;;;;;4.83;4.20;;;;;;;-2.01;62.12;100295.86;1699370;83;21130;-76
2022/01/02 08:18:45;;;;;;;3.30;2.37;;;;;;;-1.99;61.83;100294.41;1690136;84;20979;-83
2022/01/02 08:21:12;;;;;;;4.70;2.50;;;;;;;-1.95;61.98;100293.11;1690237;84;20900;-81
2022/01/02 08:23:38;;;;;;;2.73;1.70;;;;;;;-1.96;61.14;100315.17;1689317;83;21058;-79
2022/01/02 08:26:05;;;;;;;4.30;2.43;;;;;;;-1.95;61.60;100293.11;1685327;84;21079;-81
2022/01/02 08:28:31;;;;;;;2.47;1.97;;;;;;;-1.91;61.52;100303.67;1710342;83;21087;-80
2022/01/02 08:30:57;;;;;;;4.00;3.63;;;;;;;-1.87;61.25;100306.36;1713866;83;21497;-80
2022/01/02 08:33:23;;;;;;;3.20;2.50;;;;;;;-1.87;60.06;100309.80;1684775;85;21016;-79
2022/01/02 08:35:51;;;;;;;2.70;2.30;;;;;;;-1.86;60.14;100300.91;1686969;83;21068;-81
2022/01/02 08:38:17;;;;;;;1.67;1.43;;;;;;;-1.83;59.91;100291.88;1710535;83;21026;-81
2022/01/02 08:40:43;;;;;;;1.93;1.70;;;;;;;-1.83;59.34;100304.58;1673605;84;21701;-79
2022/01/02 08:43:10;;;;;;;1.83;1.73;;;;;;;-1.85;58.10;100304.38;1688771;83;21040;-80
2022/01/02 08:45:37;;;;;;;2.07;1.90;;;;;;;-1.90;57.84;100303.53;1689333;84;21146;-80
2022/01/02 08:48:08;;;;;;;3.40;1.90;;;;;;;-1.87;58.18;100294.50;1724733;83;21027;-79
2022/01/02 08:50:36;;;;;;;2.70;2.50;;;;;;;-1.90;57.87;100285.08;1720305;83;21632;-78
2022/01/02 08:53:02;;;;;;;2.97;1.83;;;;;;;-1.89;58.46;100292.01;1720453;83;21141;-75
2022/01/02 08:55:29;;;;;;;1.83;1.67;;;;;;;-1.83;58.73;100289.25;1720822;82;20995;-78
2022/01/02 08:57:55;;;;;;;2.50;1.63;;;;;;;-1.81;57.67;100278.87;1720469;82;21075;-78
2022/01/02 09:00:22;;;;;;;2.00;1.80;;;;;;;-1.75;58.11;100284.02;1720809;83;21015;-78
2022/01/02 09:02:50;;;;;;;3.10;1.77;;;;;;;-1.69;58.26;100279.44;1720631;83;21044;-79
2022/01/02 09:05:18;;;;;;;3.43;1.43;;;;;;;-1.61;57.67;100289.19;1722617;83;21012;-79
2022/01/02 09:07:45;;;;;;;1.57;1.40;;;;;;;-1.60;57.12;100274.55;1682362;84;20954;-82
2022/01/02 09:10:15;;;;;;;1.37;1.27;;;;;;;-1.57;57.27;100276.02;1717159;83;21100;-80
2022/01/02 09:12:43;;;;;;;2.30;1.70;;;;;;;-1.56;57.01;100284.27;1698427;83;21051;-78
2022/01/02 09:15:11;;;;;;;1.80;1.70;;;;;;;-1.55;57.11;100268.30;1723447;83;20971;-79
2022/01/02 09:17:39;;;;;;;3.27;2.10;;;;;;;-1.52;57.06;100273.25;1724335;82;21097;-79
2022/01/02 09:20:08;;;;;;;4.87;3.40;;;;;;;-1.49;56.85;100274.77;1724378;83;20983;-77
2022/01/02 09:22:40;;;;;;;9.47;5.27;;;;;;;-1.45;56.99;100267.70;1724585;82;20936;-77
2022/01/02 09:25:06;;;;;;;8.13;2.77;;;;;;;-1.40;56.39;100273.32;1719427;82;21043;-75
2022/01/02 09:27:34;;;;;;;5.23;2.60;;;;;;;-1.38;55.94;100267.87;1716708;82;21031;-77
2022/01/02 09:30:02;;;;;;;2.23;1.70;;;;;;;-1.40;55.13;100264.58;1696461;83;21088;-78
2022/01/02 09:32:28;;;;;;;3.03;2.00;;;;;;;-1.44;54.59;100256.13;1694456;84;21341;-76
2022/01/02 09:34:54;;;;;;;4.13;1.63;;;;;;;-1.42;54.43;100252.03;1720530;83;21007;-76
2022/01/02 09:37:21;;;;;;;5.20;1.73;;;;;;;-1.39;54.59;100256.48;1694066;83;21021;-78
2022/01/02 09:39:47;;;;;;;3.43;1.73;;;;;;;-1.35;54.94;100252.56;1693916;84;21583;-74
2022/01/02 09:42:15;;;;;;;3.43;1.80;;;;;;;-1.30;54.53;100261.81;1693466;83;22594;-77
2022/01/02 09:44:42;;;;;;;1.70;1.60;;;;;;;-1.27;54.81;100253.08;1697477;83;21350;-76
2022/01/02 09:47:10;;;;;;;4.20;1.60;;;;;;;-1.24;54.76;100254.06;1718891;83;21037;-77
2022/01/02 09:49:39;;;;;;;2.73;2.13;;;;;;;-1.17;54.91;100250.30;1699972;83;21113;-81
2022/01/02 09:52:07;;;;;;;3.70;2.17;;;;;;;-1.10;54.80;100263.17;1719433;83;21561;-81
2022/01/02 09:54:34;;;;;;;3.77;1.83;;;;;;;-1.06;54.57;100265.84;1718946;83;21560;-80
2022/01/02 09:57:01;;;;;;;1.77;1.67;;;;;;;-1.04;53.95;100269.14;1719194;83;20920;-81
2022/01/02 09:59:28;;;;;;;3.70;2.10;;;;;;;-1.02;53.70;100274.60;1702539;83;21044;-76
2022/01/02 10:01:54;;;;;;;2.13;1.80;;;;;;;-0.99;53.78;100271.63;1719587;83;21556;-78
2022/01/02 10:04:41;;;;;;;3.47;1.73;;;;;;;-0.97;53.65;100278.91;1724990;82;21075;-80
2022/01/02 10:07:30;;;;;;;1.60;1.50;;;;;;;-0.97;53.55;100289.47;1715182;83;21074;-76
2022/01/02 10:09:56;;;;;;;2.17;1.63;;;;;;;-0.99;53.57;100262.88;1719132;83;21100;-78
2022/01/02 10:12:30;;;;;;;1.70;1.60;;;;;;;-1.00;53.38;100258.58;1696818;83;21052;-79
2022/01/02 10:15:14;;;;;;;3.83;1.60;;;;;;;-0.94;53.94;100265.86;1694085;84;21071;-77
2022/01/02 10:17:59;;;;;;;2.83;1.67;;;;;;;-0.91;53.30;100272.13;1708717;83;21528;-79
2022/01/02 10:20:39;;;;;;;1.80;1.63;;;;;;;-0.86;53.45;100274.31;1720853;83;21584;-80
2022/01/02 10:23:22;;;;;;;1.93;1.63;;;;;;;-0.82;53.23;100276.95;1687755;83;20968;-77
2022/01/02 10:26:03;;;;;;;1.77;1.67;;;;;;;-0.82;53.01;100273.00;1724638;82;20998;-77
2022/01/02 10:28:40;;;;;;;3.50;1.97;;;;;;;-0.84;53.18;100268.36;1717244;83;21116;-79
2022/01/02 10:31:15;;;;;;;7.20;3.07;;;;;;;-0.83;53.36;100256.33;1724495;82;20993;-77
2022/01/02 10:33:57;;;;;;;2.83;2.00;;;;;;;-0.77;54.06;100253.53;1725226;82;20980;-80
2022/01/02 10:36:33;;;;;;;4.27;2.80;;;;;;;-0.66;54.32;100254.52;1702113;83;21010;-80
2022/01/02 10:39:14;;;;;;;2.63;2.23;;;;;;;-0.58;54.21;100267.75;1725045;82;21000;-79
2022/01/02 10:41:47;;;;;;;3.33;2.67;;;;;;;-0.58;53.40;100277.83;1686011;84;20991;-76
2022/01/02 10:44:29;;;;;;;5.42;2.92;;;;;;;-0.62;53.15;100274.32;1676891;84;21662;-78
2022/01/02 10:47:20;;;;;;;7.17;2.55;;;;;;;-0.69;53.67;100259.64;1702154;83;21197;-80
2022/01/02 10:49:50;;;;;;;2.43;2.10;;;;;;;-0.67;53.82;100262.12;1706003;83;21019;-76
2022/01/02 10:52:28;;;;;;;8.90;4.50;;;;;;;-0.69;53.46;100239.84;1715379;83;20929;-77
2022/01/02 10:54:57;;;;;;;1.63;1.53;;;;;;;-0.63;53.97;100247.61;1722134;83;21064;-79
2022/01/02 10:57:23;;;;;;;2.83;1.80;;;;;;;-0.59;53.47;100257.67;1722169;83;21179;-81
2022/01/02 10:59:50;;;;;;;1.70;1.60;;;;;;;-0.55;53.29;100260.31;1722039;83;21589;-80
2022/01/02 11:02:16;;;;;;;1.80;1.70;;;;;;;-0.53;52.86;100263.59;1721902;83;21003;-78
2022/01/02 11:04:58;;;;;;;1.70;1.60;;;;;;;-0.53;52.45;100266.24;1722179;83;21098;-80
2022/01/02 11:07:25;;;;;;;2.37;1.50;;;;;;;-0.55;52.20;100262.12;1724313;82;20997;-80
2022/01/02 11:09:54;;;;;;;2.93;2.20;;;;;;;-0.53;52.67;100268.88;1708233;82;21074;-80
2022/01/02 11:12:22;;;;;;;2.30;1.93;;;;;;;-0.52;51.88;100267.90;1720862;82;21171;-79
2022/01/02 11:14:50;;;;;;;1.60;1.50;;;;;;;-0.49;51.48;100259.67;1720659;83;21041;-75
2022/01/02 11:17:16;;;;;;;3.43;1.97;;;;;;;-0.43;51.33;100263.96;1720967;83;20988;-75
2022/01/02 11:19:43;;;;;;;1.70;1.60;;;;;;;-0.40;50.52;100244.63;1690067;83;21748;-77
2022/01/02 11:22:26;;;;;;;1.50;1.40;;;;;;;-0.35;50.41;100262.62;1699915;83;21073;-78
2022/01/02 11:25:12;;;;;;;1.87;1.42;;;;;;;-0.31;49.24;100262.12;1605658;85;21812;-76
2022/01/02 11:27:45;;;;;;;2.00;1.90;;;;;;;-0.29;49.29;100257.52;1666091;85;21000;-77
2022/01/02 11:30:34;;;;;;;4.00;1.67;;;;;;;-0.26;49.60;100260.31;1711353;83;21076;-78
2022/01/02 11:33:13;;;;;;;2.53;1.70;;;;;;;-0.17;50.13;100254.02;1718697;83;21036;-77
2022/01/02 11:35:45;;;;;;;2.43;1.83;;;;;;;-0.06;49.95;100273.52;1720600;83;21051;-77
2022/01/02 11:38:11;;;;;;;2.00;1.47;;;;;;;-0.02;49.35;100256.32;1695198;84;21141;-77
2022/01/02 11:40:49;;;;;;;1.73;1.53;;;;;;;-0.01;49.05;100263.27;1719824;83;21042;-81
2022/01/02 11:43:48;;;;;;;2.30;1.80;;;;;;;-0.01;48.89;100269.38;1700751;83;20999;-77
2022/01/02 11:46:21;;;;;;;6.43;1.70;;;;;;;0.00;48.98;100250.38;1721320;82;20999;-75